sensor_id;sensor_type;location;lat;lon;timestamp;pressure;altitude;pressure_sealevel;temperature;humidity
46394;BME280;32099;53.588;10.176;2022-07-23T00:00:24;101471.34;;;17.40;62.85
46394;BME280;32099;53.588;10.176;2022-07-23T00:02:50;101462.22;;;17.40;63.22
46394;BME280;32099;53.588;10.176;2022-07-23T00:05:15;101464.34;;;17.38;62.37
46394;BME280;32099;53.588;10.176;2022-07-23T00:07:40;101455.84;;;17.39;61.97
46394;BME280;32099;53.588;10.176;2022-07-23T00:10:05;101454.59;;;17.42;62.64
46394;BME280;32099;53.588;10.176;2022-07-23T00:12:31;101450.97;;;17.41;62.59
46394;BME280;32099;53.588;10.176;2022-07-23T00:14:56;101443.34;;;17.43;62.91
46394;BME280;32099;53.588;10.176;2022-07-23T00:17:22;101441.22;;;17.46;63.81
46394;BME280;32099;53.588;10.176;2022-07-23T00:19:47;101430.84;;;17.48;62.70
46394;BME280;32099;53.588;10.176;2022-07-23T00:22:12;101433.38;;;17.49;63.49
46394;BME280;32099;53.588;10.176;2022-07-23T00:24:37;101431.47;;;17.50;63.40
46394;BME280;32099;53.588;10.176;2022-07-23T00:27:02;101434.44;;;17.48;63.58
46394;BME280;32099;53.588;10.176;2022-07-23T00:29:27;101440.78;;;17.49;63.18
46394;BME280;32099;53.588;10.176;2022-07-23T00:31:53;101434.22;;;17.50;63.09
46394;BME280;32099;53.588;10.176;2022-07-23T00:34:18;101425.94;;;17.50;62.78
46394;BME280;32099;53.588;10.176;2022-07-23T00:36:43;101429.75;;;17.49;63.53
46394;BME280;32099;53.588;10.176;2022-07-23T00:39:08;101434.66;;;17.47;63.21
46394;BME280;32099;53.588;10.176;2022-07-23T00:41:33;101427.22;;;17.47;63.20
46394;BME280;32099;53.588;10.176;2022-07-23T00:44:15;101430.22;;;17.46;63.11
46394;BME280;32099;53.588;10.176;2022-07-23T00:46:45;101422.13;;;17.44;62.62
46394;BME280;32099;53.588;10.176;2022-07-23T00:49:10;101430.63;;;17.42;63.11
46394;BME280;32099;53.588;10.176;2022-07-23T00:51:35;101427.63;;;17.44;63.06
46394;BME280;32099;53.588;10.176;2022-07-23T00:54:01;101426.81;;;17.43;62.79
46394;BME280;32099;53.588;10.176;2022-07-23T00:56:26;101431.47;;;17.43;62.89
46394;BME280;32099;53.588;10.176;2022-07-23T00:58:51;101416.84;;;17.42;62.96
46394;BME280;32099;53.588;10.176;2022-07-23T01:01:17;101422.56;;;17.41;62.43
46394;BME280;32099;53.588;10.176;2022-07-23T01:03:42;101430.84;;;17.41;62.32
46394;BME280;32099;53.588;10.176;2022-07-23T01:06:07;101430.19;;;17.39;62.59
46394;BME280;32099;53.588;10.176;2022-07-23T01:08:32;101423.63;;;17.33;62.24
46394;BME280;32099;53.588;10.176;2022-07-23T01:10:57;101430.44;;;17.31;63.38
46394;BME280;32099;53.588;10.176;2022-07-23T01:13:23;101418.31;;;17.32;62.70
46394;BME280;32099;53.588;10.176;2022-07-23T01:15:48;101430.44;;;17.31;62.76
46394;BME280;32099;53.588;10.176;2022-07-23T01:18:13;101413.25;;;17.29;62.17
46394;BME280;32099;53.588;10.176;2022-07-23T01:20:39;101412.59;;;17.26;62.75
46394;BME280;32099;53.588;10.176;2022-07-23T01:23:04;101408.78;;;17.27;62.86
46394;BME280;32099;53.588;10.176;2022-07-23T01:25:29;101410.06;;;17.25;62.98
46394;BME280;32099;53.588;10.176;2022-07-23T01:27:54;101406.66;;;17.23;63.38
46394;BME280;32099;53.588;10.176;2022-07-23T01:30:20;101405.16;;;17.20;62.23
46394;BME280;32099;53.588;10.176;2022-07-23T01:32:45;101411.53;;;17.14;62.78
46394;BME280;32099;53.588;10.176;2022-07-23T01:35:11;101405.78;;;17.09;62.71
46394;BME280;32099;53.588;10.176;2022-07-23T01:37:36;101410.88;;;17.05;62.89
46394;BME280;32099;53.588;10.176;2022-07-23T01:40:02;101413.44;;;17.00;63.07
46394;BME280;32099;53.588;10.176;2022-07-23T01:42:27;101415.53;;;16.98;63.23
46394;BME280;32099;53.588;10.176;2022-07-23T01:44:52;101402.81;;;16.97;63.59
46394;BME280;32099;53.588;10.176;2022-07-23T01:47:18;101410.25;;;16.96;63.83
46394;BME280;32099;53.588;10.176;2022-07-23T01:49:43;101403.25;;;16.94;64.12
46394;BME280;32099;53.588;10.176;2022-07-23T01:52:08;101400.66;;;16.92;63.43
46394;BME280;32099;53.588;10.176;2022-07-23T01:54:36;101400.47;;;16.94;63.51
46394;BME280;32099;53.588;10.176;2022-07-23T01:57:02;101401.13;;;16.96;63.78
46394;BME280;32099;53.588;10.176;2022-07-23T01:59:27;101393.09;;;16.94;63.86
46394;BME280;32099;53.588;10.176;2022-07-23T02:01:53;101381.63;;;16.98;63.98
46394;BME280;32099;53.588;10.176;2022-07-23T02:04:19;101376.75;;;17.00;64.17
46394;BME280;32099;53.588;10.176;2022-07-23T02:06:44;101374.63;;;17.02;64.16
46394;BME280;32099;53.588;10.176;2022-07-23T02:09:10;101377.63;;;17.00;63.20
46394;BME280;32099;53.588;10.176;2022-07-23T02:11:35;101376.97;;;16.98;63.65
46394;BME280;32099;53.588;10.176;2022-07-23T02:14:00;101366.19;;;16.96;64.44
46394;BME280;32099;53.588;10.176;2022-07-23T02:16:25;101372.94;;;16.94;64.31
46394;BME280;32099;53.588;10.176;2022-07-23T02:18:51;101378.44;;;16.94;63.90
46394;BME280;32099;53.588;10.176;2022-07-23T02:21:16;101366.75;;;16.92;63.66
46394;BME280;32099;53.588;10.176;2022-07-23T02:23:41;101370.81;;;16.96;63.98
46394;BME280;32099;53.588;10.176;2022-07-23T02:26:06;101364.25;;;16.97;64.10
46394;BME280;32099;53.588;10.176;2022-07-23T02:28:31;101365.97;;;16.98;64.33
46394;BME280;32099;53.588;10.176;2022-07-23T02:30:57;101364.47;;;16.95;63.41
46394;BME280;32099;53.588;10.176;2022-07-23T02:33:22;101359.34;;;16.92;64.40
46394;BME280;32099;53.588;10.176;2022-07-23T02:35:47;101359.34;;;16.92;64.08
46394;BME280;32099;53.588;10.176;2022-07-23T02:38:12;101359.16;;;16.94;63.25
46394;BME280;32099;53.588;10.176;2022-07-23T02:40:37;101363.81;;;16.93;63.84
46394;BME280;32099;53.588;10.176;2022-07-23T02:43:02;101370.38;;;16.92;64.18
46394;BME280;32099;53.588;10.176;2022-07-23T02:45:28;101368.66;;;16.91;63.74
46394;BME280;32099;53.588;10.176;2022-07-23T02:47:53;101362.31;;;16.91;63.89
46394;BME280;32099;53.588;10.176;2022-07-23T02:50:18;101358.94;;;16.89;63.84
46394;BME280;32099;53.588;10.176;2022-07-23T02:52:43;101370.13;;;16.87;63.68
46394;BME280;32099;53.588;10.176;2022-07-23T02:55:08;101362.72;;;16.81;63.77
46394;BME280;32099;53.588;10.176;2022-07-23T02:57:34;101359.97;;;16.74;64.21
46394;BME280;32099;53.588;10.176;2022-07-23T02:59:59;101367.56;;;16.72;64.29
46394;BME280;32099;53.588;10.176;2022-07-23T03:02:25;101364.41;;;16.69;64.03
46394;BME280;32099;53.588;10.176;2022-07-23T03:04:50;101364.81;;;16.65;64.67
46394;BME280;32099;53.588;10.176;2022-07-23T03:07:19;101356.53;;;16.59;64.43
46394;BME280;32099;53.588;10.176;2022-07-23T03:09:44;101351.88;;;16.53;64.59
46394;BME280;32099;53.588;10.176;2022-07-23T03:12:09;101350.16;;;16.45;64.48
46394;BME280;32099;53.588;10.176;2022-07-23T03:14:34;101341.66;;;16.40;64.45
46394;BME280;32099;53.588;10.176;2022-07-23T03:16:59;101343.34;;;16.34;64.88
46394;BME280;32099;53.588;10.176;2022-07-23T03:19:25;101343.53;;;16.26;64.93
46394;BME280;32099;53.588;10.176;2022-07-23T03:21:50;101339.28;;;16.23;65.21
46394;BME280;32099;53.588;10.176;2022-07-23T03:24:16;101341.63;;;16.19;65.19
46394;BME280;32099;53.588;10.176;2022-07-23T03:26:42;101342.03;;;16.16;65.85
46394;BME280;32099;53.588;10.176;2022-07-23T03:29:08;101343.06;;;16.15;66.21
46394;BME280;32099;53.588;10.176;2022-07-23T03:31:33;101343.28;;;16.14;66.48
46394;BME280;32099;53.588;10.176;2022-07-23T03:33:58;101338.63;;;16.14;66.29
46394;BME280;32099;53.588;10.176;2022-07-23T03:36:23;101339.50;;;16.15;66.59
46394;BME280;32099;53.588;10.176;2022-07-23T03:38:49;101348.34;;;16.17;66.32
46394;BME280;32099;53.588;10.176;2022-07-23T03:41:15;101347.31;;;16.18;66.37
46394;BME280;32099;53.588;10.176;2022-07-23T03:43:40;101347.13;;;16.19;66.37
46394;BME280;32099;53.588;10.176;2022-07-23T03:46:06;101342.28;;;16.22;66.31
46394;BME280;32099;53.588;10.176;2022-07-23T03:48:31;101343.75;;;16.24;66.48
46394;BME280;32099;53.588;10.176;2022-07-23T03:50:56;101350.09;;;16.25;66.13
46394;BME280;32099;53.588;10.176;2022-07-23T03:53:21;101350.53;;;16.28;66.71
46394;BME280;32099;53.588;10.176;2022-07-23T03:55:46;101354.97;;;16.29;66.16
46394;BME280;32099;53.588;10.176;2022-07-23T03:58:11;101364.09;;;16.30;66.01
46394;BME280;32099;53.588;10.176;2022-07-23T04:00:37;101362.81;;;16.32;65.84
46394;BME280;32099;53.588;10.176;2022-07-23T04:03:02;101363.69;;;16.33;65.97
46394;BME280;32099;53.588;10.176;2022-07-23T04:05:27;101360.06;;;16.32;65.92
46394;BME280;32099;53.588;10.176;2022-07-23T04:07:52;101364.75;;;16.32;66.49
46394;BME280;32099;53.588;10.176;2022-07-23T04:10:17;101367.50;;;16.32;66.45
46394;BME280;32099;53.588;10.176;2022-07-23T04:12:43;101364.09;;;16.30;66.58
46394;BME280;32099;53.588;10.176;2022-07-23T04:15:08;101369.59;;;16.30;67.05
46394;BME280;32099;53.588;10.176;2022-07-23T04:17:33;101375.75;;;16.32;66.69
46394;BME280;32099;53.588;10.176;2022-07-23T04:19:59;101369.19;;;16.33;66.83
46394;BME280;32099;53.588;10.176;2022-07-23T04:22:24;101374.06;;;16.38;67.78
46394;BME280;32099;53.588;10.176;2022-07-23T04:24:49;101372.59;;;16.42;67.59
46394;BME280;32099;53.588;10.176;2022-07-23T04:27:15;101371.13;;;16.46;67.50
46394;BME280;32099;53.588;10.176;2022-07-23T04:29:40;101373.47;;;16.49;66.80
46394;BME280;32099;53.588;10.176;2022-07-23T04:32:05;101370.94;;;16.54;66.38
46394;BME280;32099;53.588;10.176;2022-07-23T04:34:30;101374.75;;;16.60;67.02
46394;BME280;32099;53.588;10.176;2022-07-23T04:36:55;101370.31;;;16.65;66.55
46394;BME280;32099;53.588;10.176;2022-07-23T04:39:21;101370.13;;;16.67;66.67
46394;BME280;32099;53.588;10.176;2022-07-23T04:41:46;101373.94;;;16.73;67.22
46394;BME280;32099;53.588;10.176;2022-07-23T04:44:11;101377.53;;;16.73;66.60
46394;BME280;32099;53.588;10.176;2022-07-23T04:46:37;101373.94;;;16.73;66.96
46394;BME280;32099;53.588;10.176;2022-07-23T04:49:02;101364.81;;;16.72;66.89
46394;BME280;32099;53.588;10.176;2022-07-23T04:51:27;101366.31;;;16.75;67.02
46394;BME280;32099;53.588;10.176;2022-07-23T04:53:53;101370.75;;;16.76;65.80
46394;BME280;32099;53.588;10.176;2022-07-23T04:56:19;101379.66;;;16.78;66.11
46394;BME280;32099;53.588;10.176;2022-07-23T04:58:44;101379.47;;;16.79;66.50
46394;BME280;32099;53.588;10.176;2022-07-23T05:01:09;101375.63;;;16.80;65.85
46394;BME280;32099;53.588;10.176;2022-07-23T05:03:34;101373.97;;;16.79;65.70
46394;BME280;32099;53.588;10.176;2022-07-23T05:05:59;101377.97;;;16.77;65.78
46394;BME280;32099;53.588;10.176;2022-07-23T05:08:25;101382.81;;;16.75;66.35
46394;BME280;32099;53.588;10.176;2022-07-23T05:10:50;101378.59;;;16.72;66.44
46394;BME280;32099;53.588;10.176;2022-07-23T05:13:16;101380.28;;;16.73;66.76
46394;BME280;32099;53.588;10.176;2022-07-23T05:15:41;101387.28;;;16.76;66.80
46394;BME280;32099;53.588;10.176;2022-07-23T05:18:07;101394.91;;;16.74;66.12
46394;BME280;32099;53.588;10.176;2022-07-23T05:20:32;101391.53;;;16.72;66.49
46394;BME280;32099;53.588;10.176;2022-07-23T05:22:57;101390.47;;;16.73;66.73
46394;BME280;32099;53.588;10.176;2022-07-23T05:25:22;101390.66;;;16.71;65.98
46394;BME280;32099;53.588;10.176;2022-07-23T05:27:47;101395.09;;;16.65;66.68
46394;BME280;32099;53.588;10.176;2022-07-23T05:30:13;101396.16;;;16.64;65.87
46394;BME280;32099;53.588;10.176;2022-07-23T05:32:38;101407.78;;;16.60;65.82
46394;BME280;32099;53.588;10.176;2022-07-23T05:35:04;101400.59;;;16.59;65.87
46394;BME280;32099;53.588;10.176;2022-07-23T05:37:29;101406.53;;;16.62;66.40
46394;BME280;32099;53.588;10.176;2022-07-23T05:39:55;101398.06;;;16.64;66.19
46394;BME280;32099;53.588;10.176;2022-07-23T05:42:20;101405.94;;;16.67;67.02
46394;BME280;32099;53.588;10.176;2022-07-23T05:44:45;101391.72;;;16.70;65.84
46394;BME280;32099;53.588;10.176;2022-07-23T05:47:10;101396.81;;;16.73;65.69
46394;BME280;32099;53.588;10.176;2022-07-23T05:49:36;101403.63;;;16.77;65.66
46394;BME280;32099;53.588;10.176;2022-07-23T05:52:05;101402.56;;;16.85;65.84
46394;BME280;32099;53.588;10.176;2022-07-23T05:54:30;101394.28;;;16.92;65.56
46394;BME280;32099;53.588;10.176;2022-07-23T05:56:55;101406.22;;;16.99;65.17
46394;BME280;32099;53.588;10.176;2022-07-23T05:59:21;101407.94;;;17.07;65.26
46394;BME280;32099;53.588;10.176;2022-07-23T06:01:46;101404.09;;;17.15;65.16
46394;BME280;32099;53.588;10.176;2022-07-23T06:04:11;101403.28;;;17.21;65.55
46394;BME280;32099;53.588;10.176;2022-07-23T06:06:36;101401.56;;;17.26;65.67
46394;BME280;32099;53.588;10.176;2022-07-23T06:09:02;101402.41;;;17.34;65.15
46394;BME280;32099;53.588;10.176;2022-07-23T06:11:27;101397.75;;;17.41;64.67
46394;BME280;32099;53.588;10.176;2022-07-23T06:13:52;101401.78;;;17.45;64.47
46394;BME280;32099;53.588;10.176;2022-07-23T06:16:18;101401.56;;;17.47;63.78
46394;BME280;32099;53.588;10.176;2022-07-23T06:18:43;101393.50;;;17.52;64.42
46394;BME280;32099;53.588;10.176;2022-07-23T06:21:08;101391.78;;;17.57;64.27
46394;BME280;32099;53.588;10.176;2022-07-23T06:23:33;101395.59;;;17.63;63.81
46394;BME280;32099;53.588;10.176;2022-07-23T06:25:58;101392.84;;;17.70;64.03
46394;BME280;32099;53.588;10.176;2022-07-23T06:28:24;101391.34;;;17.81;63.97
46394;BME280;32099;53.588;10.176;2022-07-23T06:30:49;101398.53;;;17.88;63.12
46394;BME280;32099;53.588;10.176;2022-07-23T06:33:14;101390.88;;;17.91;63.36
46394;BME280;32099;53.588;10.176;2022-07-23T06:35:39;101396.41;;;17.97;63.11
46394;BME280;32099;53.588;10.176;2022-07-23T06:38:05;101392.78;;;18.03;62.66
46394;BME280;32099;53.588;10.176;2022-07-23T06:40:30;101398.72;;;18.07;62.43
46394;BME280;32099;53.588;10.176;2022-07-23T06:42:55;101398.06;;;18.12;63.19
46394;BME280;32099;53.588;10.176;2022-07-23T06:45:20;101393.59;;;18.17;63.35
46394;BME280;32099;53.588;10.176;2022-07-23T06:47:45;101395.91;;;18.21;62.67
46394;BME280;32099;53.588;10.176;2022-07-23T06:50:11;101391.63;;;18.25;62.82
46394;BME280;32099;53.588;10.176;2022-07-23T06:52:36;101407.97;;;18.33;62.74
46394;BME280;32099;53.588;10.176;2022-07-23T06:55:01;101407.72;;;18.41;63.28
46394;BME280;32099;53.588;10.176;2022-07-23T06:57:26;101407.06;;;18.46;61.60
46394;BME280;32099;53.588;10.176;2022-07-23T06:59:52;101394.28;;;18.52;61.84
46394;BME280;32099;53.588;10.176;2022-07-23T07:02:17;101403.19;;;18.54;61.99
46394;BME280;32099;53.588;10.176;2022-07-23T07:04:42;101407.66;;;18.55;61.63
46394;BME280;32099;53.588;10.176;2022-07-23T07:07:08;101407.25;;;18.51;61.02
46394;BME280;32099;53.588;10.176;2022-07-23T07:09:33;101417.66;;;18.49;61.29
46394;BME280;32099;53.588;10.176;2022-07-23T07:11:58;101418.50;;;18.49;61.12
46394;BME280;32099;53.588;10.176;2022-07-23T07:14:24;101418.94;;;18.46;61.42
46394;BME280;32099;53.588;10.176;2022-07-23T07:16:50;101421.53;;;18.41;61.35
46394;BME280;32099;53.588;10.176;2022-07-23T07:19:15;101428.53;;;18.37;61.22
46394;BME280;32099;53.588;10.176;2022-07-23T07:21:40;101431.31;;;18.37;61.98
46394;BME280;32099;53.588;10.176;2022-07-23T07:24:05;101430.22;;;18.38;61.76
46394;BME280;32099;53.588;10.176;2022-07-23T07:26:31;101442.97;;;18.39;62.16
46394;BME280;32099;53.588;10.176;2022-07-23T07:28:56;101431.50;;;18.42;62.78
46394;BME280;32099;53.588;10.176;2022-07-23T07:31:22;101439.13;;;18.47;61.93
46394;BME280;32099;53.588;10.176;2022-07-23T07:33:47;101439.53;;;18.50;60.75
46394;BME280;32099;53.588;10.176;2022-07-23T07:36:12;101431.44;;;18.56;60.83
46394;BME280;32099;53.588;10.176;2022-07-23T07:38:38;101425.44;;;18.65;61.12
46394;BME280;32099;53.588;10.176;2022-07-23T07:41:03;101426.94;;;18.68;60.58
46394;BME280;32099;53.588;10.176;2022-07-23T07:43:28;101431.63;;;18.61;60.86
46394;BME280;32099;53.588;10.176;2022-07-23T07:45:53;101433.97;;;18.57;62.42
46394;BME280;32099;53.588;10.176;2022-07-23T07:48:18;101452.50;;;18.50;64.02
46394;BME280;32099;53.588;10.176;2022-07-23T07:50:44;101450.19;;;18.40;65.00
46394;BME280;32099;53.588;10.176;2022-07-23T07:53:09;101444.03;;;18.38;64.52
46394;BME280;32099;53.588;10.176;2022-07-23T07:55:34;101448.34;;;18.27;65.12
46394;BME280;32099;53.588;10.176;2022-07-23T07:58:00;101437.34;;;18.14;65.13
46394;BME280;32099;53.588;10.176;2022-07-23T08:00:25;101441.78;;;18.15;65.99
46394;BME280;32099;53.588;10.176;2022-07-23T08:02:51;101442.16;;;18.39;64.79
46394;BME280;32099;53.588;10.176;2022-07-23T08:05:23;101441.41;;;18.63;65.29
46394;BME280;32099;53.588;10.176;2022-07-23T08:07:49;101444.03;;;18.84;63.02
46394;BME280;32099;53.588;10.176;2022-07-23T08:10:14;101442.84;;;19.11;62.91
46394;BME280;32099;53.588;10.176;2022-07-23T08:15:05;101446.16;;;19.71;61.76
46394;BME280;32099;53.588;10.176;2022-07-23T08:17:31;101437.19;;;20.01;60.65
46394;BME280;32099;53.588;10.176;2022-07-23T08:19:56;101429.94;;;20.18;59.68
46394;BME280;32099;53.588;10.176;2022-07-23T08:22:21;101431.31;;;20.28;59.46
46394;BME280;32099;53.588;10.176;2022-07-23T08:24:46;101430.72;;;20.44;58.43
46394;BME280;32099;53.588;10.176;2022-07-23T08:27:11;101425.41;;;20.73;59.40
46394;BME280;32099;53.588;10.176;2022-07-23T08:29:37;101433.03;;;21.08;58.80
46394;BME280;32099;53.588;10.176;2022-07-23T08:32:02;101430.59;;;21.00;57.95
46394;BME280;32099;53.588;10.176;2022-07-23T08:34:27;101441.53;;;20.64;58.80
46394;BME280;32099;53.588;10.176;2022-07-23T08:36:52;101443.97;;;20.24;59.36
46394;BME280;32099;53.588;10.176;2022-07-23T08:39:17;101456.50;;;19.82;60.40
46394;BME280;32099;53.588;10.176;2022-07-23T08:41:43;101442.50;;;19.52;60.97
46394;BME280;32099;53.588;10.176;2022-07-23T08:44:08;101446.09;;;19.27;62.09
46394;BME280;32099;53.588;10.176;2022-07-23T08:46:34;101450.25;;;19.11;62.46
46394;BME280;32099;53.588;10.176;2022-07-23T08:48:59;101453.34;;;18.96;62.21
46394;BME280;32099;53.588;10.176;2022-07-23T08:51:25;101460.56;;;18.90;62.65
46394;BME280;32099;53.588;10.176;2022-07-23T08:53:51;101460.59;;;18.84;63.45
46394;BME280;32099;53.588;10.176;2022-07-23T08:56:17;101455.34;;;18.75;63.58
46394;BME280;32099;53.588;10.176;2022-07-23T08:58:42;101457.72;;;18.72;62.57
46394;BME280;32099;53.588;10.176;2022-07-23T09:01:07;101454.94;;;18.72;63.81
46394;BME280;32099;53.588;10.176;2022-07-23T09:03:35;101456.78;;;18.85;63.56
46394;BME280;32099;53.588;10.176;2022-07-23T09:06:01;101454.59;;;19.00;61.78
46394;BME280;32099;53.588;10.176;2022-07-23T09:08:39;101443.00;;;19.17;61.57
46394;BME280;32099;53.588;10.176;2022-07-23T09:11:05;101445.94;;;19.47;61.60
46394;BME280;32099;53.588;10.176;2022-07-23T09:16:08;101442.00;;;19.87;57.79
46394;BME280;32099;53.588;10.176;2022-07-23T09:18:37;101450.16;;;20.00;57.30
46394;BME280;32099;53.588;10.176;2022-07-23T09:23:38;101448.50;;;20.18;58.02
46394;BME280;32099;53.588;10.176;2022-07-23T09:26:10;101450.44;;;20.36;57.04
46394;BME280;32099;53.588;10.176;2022-07-23T09:28:51;101443.16;;;20.54;57.38
46394;BME280;32099;53.588;10.176;2022-07-23T09:31:18;101448.75;;;20.65;55.63
46394;BME280;32099;53.588;10.176;2022-07-23T09:33:43;101446.31;;;20.76;55.68
46394;BME280;32099;53.588;10.176;2022-07-23T09:36:08;101443.47;;;20.94;55.63
46394;BME280;32099;53.588;10.176;2022-07-23T09:38:34;101447.41;;;21.17;55.00
46394;BME280;32099;53.588;10.176;2022-07-23T09:41:06;101442.72;;;21.30;54.41
46394;BME280;32099;53.588;10.176;2022-07-23T09:43:32;101446.34;;;21.30;55.18
46394;BME280;32099;53.588;10.176;2022-07-23T09:48:41;101445.16;;;21.26;54.49
46394;BME280;32099;53.588;10.176;2022-07-23T09:51:07;101453.06;;;21.10;55.57
46394;BME280;32099;53.588;10.176;2022-07-23T09:53:32;101448.69;;;21.03;54.65
46394;BME280;32099;53.588;10.176;2022-07-23T09:55:57;101451.09;;;20.99;55.31
46394;BME280;32099;53.588;10.176;2022-07-23T09:58:23;101446.00;;;20.96;54.75
46394;BME280;32099;53.588;10.176;2022-07-23T10:00:51;101444.03;;;20.85;55.40
46394;BME280;32099;53.588;10.176;2022-07-23T10:03:17;101453.63;;;20.70;55.93
46394;BME280;32099;53.588;10.176;2022-07-23T10:05:43;101451.09;;;20.50;56.03
46394;BME280;32099;53.588;10.176;2022-07-23T10:08:09;101447.03;;;20.34;56.37
46394;BME280;32099;53.588;10.176;2022-07-23T10:10:35;101454.78;;;20.25;56.52
46394;BME280;32099;53.588;10.176;2022-07-23T10:13:01;101452.28;;;20.24;56.82
46394;BME280;32099;53.588;10.176;2022-07-23T10:15:27;101453.47;;;20.28;58.07
46394;BME280;32099;53.588;10.176;2022-07-23T10:17:53;101457.41;;;20.39;55.91
46394;BME280;32099;53.588;10.176;2022-07-23T10:20:18;101448.72;;;20.35;55.66
46394;BME280;32099;53.588;10.176;2022-07-23T10:25:40;101471.56;;;20.12;55.96
46394;BME280;32099;53.588;10.176;2022-07-23T10:28:25;101465.06;;;19.99;56.25
46394;BME280;32099;53.588;10.176;2022-07-23T10:31:00;101467.09;;;19.92;57.69
46394;BME280;32099;53.588;10.176;2022-07-23T10:33:32;101465.38;;;19.91;57.29
46394;BME280;32099;53.588;10.176;2022-07-23T10:36:17;101472.38;;;19.94;57.16
46394;BME280;32099;53.588;10.176;2022-07-23T10:38:58;101470.06;;;19.91;57.65
46394;BME280;32099;53.588;10.176;2022-07-23T10:41:35;101468.16;;;19.91;58.22
46394;BME280;32099;53.588;10.176;2022-07-23T10:46:35;101473.63;;;20.16;57.73
46394;BME280;32099;53.588;10.176;2022-07-23T10:49:26;101467.09;;;20.48;56.53
46394;BME280;32099;53.588;10.176;2022-07-23T10:52:36;101468.28;;;20.71;56.42
46394;BME280;32099;53.588;10.176;2022-07-23T10:54:36;101471.91;;;20.90;55.34
46394;BME280;32099;53.588;10.176;2022-07-23T10:57:06;101470.75;;;20.98;54.70
46394;BME280;32099;53.588;10.176;2022-07-23T10:59:33;101473.63;;;21.03;53.65
46394;BME280;32099;53.588;10.176;2022-07-23T11:02:20;101474.09;;;21.00;52.58
46394;BME280;32099;53.588;10.176;2022-07-23T11:04:49;101481.06;;;20.90;54.69
46394;BME280;32099;53.588;10.176;2022-07-23T11:07:18;101483.91;;;21.02;54.22
46394;BME280;32099;53.588;10.176;2022-07-23T11:09:43;101475.75;;;21.19;53.24
46394;BME280;32099;53.588;10.176;2022-07-23T11:17:21;101487.53;;;21.57;54.77
46394;BME280;32099;53.588;10.176;2022-07-23T11:20:29;101477.19;;;21.64;54.94
46394;BME280;32099;53.588;10.176;2022-07-23T11:25:08;101490.88;;;21.47;54.85
46394;BME280;32099;53.588;10.176;2022-07-23T11:27:39;101488.19;;;21.40;55.02
46394;BME280;32099;53.588;10.176;2022-07-23T11:30:06;101488.69;;;21.37;55.15
46394;BME280;32099;53.588;10.176;2022-07-23T11:32:33;101494.97;;;21.33;56.16
46394;BME280;32099;53.588;10.176;2022-07-23T11:35:00;101484.59;;;21.28;55.63
46394;BME280;32099;53.588;10.176;2022-07-23T11:37:31;101480.34;;;21.25;55.79
46394;BME280;32099;53.588;10.176;2022-07-23T11:39:57;101486.50;;;21.27;55.92
46394;BME280;32099;53.588;10.176;2022-07-23T11:42:22;101481.69;;;21.35;54.38
46394;BME280;32099;53.588;10.176;2022-07-23T11:44:49;101477.47;;;21.32;55.44
46394;BME280;32099;53.588;10.176;2022-07-23T11:47:14;101481.47;;;21.36;54.27
46394;BME280;32099;53.588;10.176;2022-07-23T11:49:51;101482.53;;;21.35;55.09
46394;BME280;32099;53.588;10.176;2022-07-23T11:52:17;101481.34;;;21.43;54.81
46394;BME280;32099;53.588;10.176;2022-07-23T11:57:13;101486.25;;;21.71;54.14
46394;BME280;32099;53.588;10.176;2022-07-23T11:59:38;101489.03;;;21.83;53.76
46394;BME280;32099;53.588;10.176;2022-07-23T12:02:04;101487.94;;;21.84;52.98
46394;BME280;32099;53.588;10.176;2022-07-23T12:04:46;101496.00;;;21.86;53.28
46394;BME280;32099;53.588;10.176;2022-07-23T12:07:31;101480.81;;;22.00;53.41
46394;BME280;32099;53.588;10.176;2022-07-23T12:09:58;101474.88;;;22.21;52.65
46394;BME280;32099;53.588;10.176;2022-07-23T12:12:23;101491.50;;;22.32;52.85
46394;BME280;32099;53.588;10.176;2022-07-23T12:17:14;101500.22;;;22.48;51.93
46394;BME280;32099;53.588;10.176;2022-07-23T12:19:39;101494.31;;;22.44;51.24
46394;BME280;32099;53.588;10.176;2022-07-23T12:22:04;101502.28;;;22.29;51.83
46394;BME280;32099;53.588;10.176;2022-07-23T12:24:29;101498.44;;;22.18;52.25
46394;BME280;32099;53.588;10.176;2022-07-23T12:27:07;101488.78;;;22.09;51.48
46394;BME280;32099;53.588;10.176;2022-07-23T12:29:36;101491.81;;;22.19;51.13
46394;BME280;32099;53.588;10.176;2022-07-23T12:32:01;101496.50;;;22.18;51.40
46394;BME280;32099;53.588;10.176;2022-07-23T12:34:27;101485.88;;;22.15;51.82
46394;BME280;32099;53.588;10.176;2022-07-23T12:36:52;101494.44;;;22.26;51.83
46394;BME280;32099;53.588;10.176;2022-07-23T12:39:30;101500.72;;;22.33;51.49
46394;BME280;32099;53.588;10.176;2022-07-23T12:41:56;101503.84;;;22.37;52.15
46394;BME280;32099;53.588;10.176;2022-07-23T12:44:21;101506.78;;;22.42;51.88
46394;BME280;32099;53.588;10.176;2022-07-23T12:46:50;101503.22;;;22.34;51.58
46394;BME280;32099;53.588;10.176;2022-07-23T12:49:26;101514.25;;;22.29;51.13
46394;BME280;32099;53.588;10.176;2022-07-23T12:51:52;101508.09;;;22.27;51.85
46394;BME280;32099;53.588;10.176;2022-07-23T12:54:17;101510.97;;;22.32;50.66
46394;BME280;32099;53.588;10.176;2022-07-23T12:56:45;101507.34;;;22.32;50.33
46394;BME280;32099;53.588;10.176;2022-07-23T12:59:11;101508.78;;;22.34;51.17
46394;BME280;32099;53.588;10.176;2022-07-23T13:01:39;101515.19;;;22.47;52.24
46394;BME280;32099;53.588;10.176;2022-07-23T13:04:09;101502.94;;;22.72;50.30